Accueil
METAR-TAF:

METAR-TAF

Aéroports :

Aéroport d'Ouargla - Aïn Beida

Ouargla, Algérie

latitude: 31-55N, longitude: 005-24E, altitude: 141 m

Observation

Le bulletin a été fait il y a 28 minutes, à 07:00 UTC
Vent 10 kt de sud/sud-est
Température 27°C
Humidité 23%
Pression 1016 hPa
Visibilité 10 km ou plus
Nuages fragmentés à une hauteur de 4000 ft

METAR: DAUU 290700Z 15010KT 9999 BKN040 27/04 Q1016

Heure: 08:28 (07:28 UTC)

Prévision

Le bulletin a été fait il y a 2 heures et 28 minutes, à 05:00 UTC
Prévision valable du 29 à 06 UTC au 29 à 15 UTC
Vent 10 kt de sud-est
Visibilité: 8000 m
Nuages épars à une hauteur de 4000 ft
Nuages épars à une hauteur de 10000 ft
Probabilité 30% :
Temporairement
du 29 à 06 UTC au 29 à 10 UTC
Quelques nuages à une hauteur de 4000 ft, Cumulus congestus.

TAF: DAUU 290500Z 2906/2915 14010KT 8000 SCT040 SCT100 PROB30 TEMPO 2906/2910 FEW040TCU

Observations et prévisions météorologiques de plus de 4000 aéroports (messages METAR et TAF).

Les stations disponibles sont représentées par des disques jaunes et rouges sur la carte.

Passer la souris dessus pour voir le nom de la station.

Cliquer dessus pour voir les observations et prévisions météorologiques.

Pour changer de carte: cliquez sur les boutons verts avec une croix noire pour zoomer, sur le bouton vert avec un tiret pour effectuer un zoom arrière, ou sur les flèches vertes pour les cartes adjacentes.


METAR-TAF: